createdAt,value
2018-09-22T00:02:27.730Z,56.1
2018-09-22T00:07:27.538Z,56.1
2018-09-22T00:12:28.057Z,56.1
2018-09-22T00:17:27.788Z,56.1
2018-09-22T00:22:28.064Z,56.1
2018-09-22T00:27:28.511Z,56.1
2018-09-22T00:32:27.939Z,56.0
2018-09-22T00:37:28.273Z,56.0
2018-09-22T00:42:28.161Z,56.0
2018-09-22T00:47:27.070Z,56.2
2018-09-22T00:52:27.405Z,56.1
2018-09-22T00:57:27.898Z,56.0
2018-09-22T01:02:28.213Z,56.0
2018-09-22T01:07:28.194Z,56.0
2018-09-22T01:12:27.840Z,56.1
2018-09-22T01:17:27.464Z,56.0
2018-09-22T01:22:27.744Z,55.9
2018-09-22T01:27:27.007Z,55.9
2018-09-22T01:32:27.977Z,55.9
2018-09-22T01:37:27.721Z,56.1
2018-09-22T01:42:27.294Z,56.1
2018-09-22T01:47:28.266Z,56.0
2018-09-22T01:52:27.681Z,56.0
2018-09-22T01:57:28.437Z,56.1
2018-09-22T02:02:27.605Z,56.1
2018-09-22T02:07:28.289Z,56.1
2018-09-22T02:12:27.679Z,56.1
2018-09-22T02:17:28.107Z,56.1
2018-09-22T02:22:28.007Z,56.2
2018-09-22T02:27:26.892Z,56.2
2018-09-22T02:32:27.799Z,56.2
2018-09-22T02:37:28.146Z,56.0
2018-09-22T02:42:27.365Z,56.1
2018-09-22T02:47:27.382Z,56.0
2018-09-22T02:52:27.764Z,56.0
2018-09-22T02:57:27.619Z,56.2
2018-09-22T03:02:27.535Z,56.2
2018-09-22T03:07:28.618Z,56.3
2018-09-22T03:12:27.529Z,56.1
2018-09-22T03:17:27.841Z,56.0
2018-09-22T03:22:28.087Z,55.8
2018-09-22T03:27:28.224Z,55.8
2018-09-22T03:32:27.739Z,56.0
2018-09-22T03:37:27.178Z,56.0
2018-09-22T03:42:27.454Z,56.0
2018-09-22T03:47:27.638Z,56.1
2018-09-22T03:52:27.682Z,56.1
2018-09-22T03:57:27.940Z,56.1
2018-09-22T04:02:28.738Z,56.1
2018-09-22T04:07:28.013Z,56.3
2018-09-22T04:12:27.374Z,56.1
2018-09-22T04:17:28.490Z,56.3
2018-09-22T04:22:28.152Z,56.2
2018-09-22T04:27:28.378Z,56.4
2018-09-22T04:32:28.317Z,56.2
2018-09-22T04:37:28.116Z,56.2
2018-09-22T04:42:27.891Z,56.1
2018-09-22T04:47:28.589Z,56.2
2018-09-22T04:52:28.247Z,56.0
2018-09-22T04:57:27.687Z,56.0
2018-09-22T05:02:28.024Z,56.2
2018-09-22T05:07:27.872Z,56.3
2018-09-22T05:12:28.196Z,56.2
2018-09-22T05:17:29.008Z,56.6
2018-09-22T05:22:28.276Z,56.5
2018-09-22T05:27:28.068Z,56.9
2018-09-22T05:32:28.291Z,56.8
2018-09-22T05:37:29.648Z,56.9
2018-09-22T05:42:28.594Z,56.7
2018-09-22T05:47:27.917Z,56.5
2018-09-22T05:52:28.332Z,56.5
2018-09-22T05:57:28.350Z,56.2
2018-09-22T06:02:27.251Z,55.8
2018-09-22T06:07:28.558Z,55.7
2018-09-22T06:12:28.084Z,55.9
2018-09-22T06:17:28.995Z,55.5
2018-09-22T06:22:28.816Z,55.4
2018-09-22T06:27:27.975Z,55.2
2018-09-22T06:32:28.499Z,55.1
2018-09-22T06:37:29.020Z,55.0
2018-09-22T06:42:27.538Z,54.9
2018-09-22T06:47:27.844Z,54.7
2018-09-22T06:52:28.306Z,54.9
2018-09-22T06:57:28.646Z,54.7
2018-09-22T07:02:28.103Z,54.7
2018-09-22T07:07:28.812Z,54.6
2018-09-22T07:12:28.395Z,54.4
2018-09-22T07:17:28.485Z,54.9
2018-09-22T07:22:27.884Z,54.9
2018-09-22T07:27:28.801Z,54.6
2018-09-22T07:32:27.736Z,54.8
2018-09-22T07:37:28.019Z,54.4
2018-09-22T07:42:28.285Z,54.4
2018-09-22T07:47:28.326Z,54.7
2018-09-22T07:52:28.106Z,54.7
2018-09-22T07:57:28.536Z,54.8
2018-09-22T08:02:28.326Z,54.7
2018-09-22T08:07:28.617Z,54.4
2018-09-22T08:12:27.723Z,54.6
2018-09-22T08:17:28.784Z,54.1
2018-09-22T08:22:27.258Z,54.4
2018-09-22T08:27:28.283Z,54.4
2018-09-22T08:32:27.896Z,54.3
2018-09-22T08:37:28.581Z,54.3
2018-09-22T08:42:28.379Z,54.1
2018-09-22T08:47:28.293Z,54.4
2018-09-22T08:52:28.403Z,54.2
2018-09-22T08:57:28.263Z,54.2
2018-09-22T09:02:28.340Z,54.1
2018-09-22T09:07:28.775Z,54.1
2018-09-22T09:12:28.166Z,54.0
2018-09-22T09:17:27.928Z,54.1
2018-09-22T09:22:28.328Z,54.3
2018-09-22T09:27:28.206Z,53.8
2018-09-22T09:32:28.074Z,54.0
2018-09-22T09:37:27.999Z,54.1
2018-09-22T09:42:28.056Z,54.0
2018-09-22T09:47:29.014Z,54.0
2018-09-22T09:52:27.978Z,53.9
2018-09-22T09:57:28.195Z,54.1
2018-09-22T10:02:28.599Z,54.4
2018-09-22T10:07:28.367Z,53.6
2018-09-22T10:12:28.532Z,53.6
2018-09-22T10:17:27.996Z,54.1
2018-09-22T10:22:28.530Z,54.1
2018-09-22T10:27:28.899Z,53.7
2018-09-22T10:32:28.833Z,53.4
2018-09-22T10:37:28.777Z,53.7
2018-09-22T10:42:27.797Z,53.7
2018-09-22T10:47:29.064Z,53.7
2018-09-22T10:52:29.015Z,54.6
2018-09-22T10:57:27.877Z,54.2
2018-09-22T11:02:29.779Z,54.4
2018-09-22T11:07:28.234Z,54.2
2018-09-22T11:12:27.927Z,54.3
2018-09-22T11:17:28.528Z,53.9
2018-09-22T11:22:28.681Z,53.8
2018-09-22T11:27:28.660Z,53.6
2018-09-22T11:32:28.794Z,53.6
2018-09-22T11:37:28.187Z,53.0
2018-09-22T11:42:27.815Z,53.4
2018-09-22T11:47:28.105Z,53.4
2018-09-22T11:52:28.293Z,53.9
2018-09-22T11:57:28.958Z,54.0
2018-09-22T12:02:29.175Z,52.9
2018-09-22T12:07:28.549Z,52.9
2018-09-22T12:12:28.328Z,53.2
2018-09-22T12:17:29.356Z,52.9
2018-09-22T12:22:27.915Z,53.1
2018-09-22T12:27:28.427Z,52.7
2018-09-22T12:32:28.103Z,52.5
2018-09-22T12:37:28.489Z,52.9
2018-09-22T12:42:27.871Z,52.7
2018-09-22T12:47:28.156Z,52.7
2018-09-22T12:52:27.684Z,51.9
2018-09-22T12:57:28.479Z,52.7
2018-09-22T13:02:28.511Z,53.0
2018-09-22T13:07:29.225Z,53.2
2018-09-22T13:12:28.457Z,52.7
2018-09-22T13:17:29.449Z,53.2
2018-09-22T13:22:27.273Z,53.1
2018-09-22T13:27:28.388Z,52.7
2018-09-22T13:32:29.144Z,52.6
2018-09-22T13:37:27.793Z,52.5
2018-09-22T13:42:28.972Z,51.9
2018-09-22T13:47:27.896Z,52.0
2018-09-22T13:52:28.789Z,52.2
2018-09-22T13:57:28.901Z,51.5
2018-09-22T14:02:28.863Z,50.9
2018-09-22T14:07:29.216Z,51.3
2018-09-22T14:12:27.888Z,49.7
2018-09-22T14:17:28.940Z,49.7
2018-09-22T14:22:27.768Z,48.7
2018-09-22T14:27:28.348Z,48.8
2018-09-22T14:32:27.922Z,47.5
2018-09-22T14:37:27.875Z,46.3
2018-09-22T14:42:28.252Z,45.6
2018-09-22T14:47:27.890Z,44.4
2018-09-22T14:52:27.875Z,44.5
2018-09-22T14:57:28.049Z,47.3
2018-09-22T15:02:28.345Z,48.7
2018-09-22T15:07:28.265Z,49.4
2018-09-22T15:12:28.033Z,50.1
2018-09-22T15:17:29.688Z,50.0
2018-09-22T15:22:28.313Z,50.2
2018-09-22T15:27:29.542Z,49.4
2018-09-22T15:32:27.875Z,49.4
2018-09-22T15:37:28.526Z,50.0
2018-09-22T15:42:28.033Z,50.2
2018-09-22T15:47:28.079Z,50.7
2018-09-22T15:52:29.836Z,50.6
2018-09-22T15:57:28.354Z,51.1
2018-09-22T16:02:27.802Z,51.0
2018-09-22T16:07:28.884Z,51.2
2018-09-22T16:12:28.591Z,51.1
2018-09-22T16:17:29.415Z,51.3
2018-09-22T16:22:27.977Z,51.5
2018-09-22T16:27:29.408Z,51.7
2018-09-22T16:32:27.914Z,51.8
2018-09-22T16:37:28.682Z,51.8
2018-09-22T16:42:29.204Z,51.9
2018-09-22T16:47:28.855Z,52.0
2018-09-22T16:52:27.787Z,52.1
2018-09-22T16:57:27.986Z,52.1
2018-09-22T17:02:28.421Z,52.3
2018-09-22T17:07:28.431Z,52.4
2018-09-22T17:12:28.212Z,52.3
2018-09-22T17:17:28.032Z,52.6
2018-09-22T17:22:27.837Z,52.7
2018-09-22T17:27:28.298Z,52.7
2018-09-22T17:32:28.242Z,52.8
2018-09-22T17:37:28.474Z,52.8
2018-09-22T17:42:28.028Z,52.9
2018-09-22T17:47:27.857Z,52.9
2018-09-22T17:52:28.260Z,53.0
2018-09-22T17:57:27.889Z,53.0
2018-09-22T18:02:28.113Z,53.0
2018-09-22T18:07:28.626Z,52.9
2018-09-22T18:12:27.862Z,52.9
2018-09-22T18:17:28.423Z,53.0
2018-09-22T18:22:28.265Z,53.0
2018-09-22T18:27:28.156Z,53.0
2018-09-22T18:32:28.349Z,53.0
2018-09-22T18:37:27.865Z,53.0
2018-09-22T18:42:27.740Z,52.9
2018-09-22T18:47:27.971Z,53.1
2018-09-22T18:52:27.315Z,53.2
2018-09-22T18:57:27.908Z,53.2
2018-09-22T19:02:27.816Z,53.2
2018-09-22T19:07:28.292Z,53.0
2018-09-22T19:12:27.482Z,53.2
2018-09-22T19:17:27.505Z,53.4
2018-09-22T19:22:29.601Z,53.3
2018-09-22T19:27:27.436Z,53.4
2018-09-22T19:32:29.033Z,53.4
2018-09-22T19:37:27.483Z,53.2
2018-09-22T19:42:27.550Z,53.5
2018-09-22T19:47:28.110Z,53.5
2018-09-22T19:52:27.240Z,53.5
2018-09-22T19:57:27.807Z,53.5
2018-09-22T20:02:27.606Z,53.4
2018-09-22T20:07:28.028Z,53.1
2018-09-22T20:12:28.414Z,53.2
2018-09-22T20:17:27.713Z,53.2
2018-09-22T20:22:27.491Z,53.3
2018-09-22T20:27:27.785Z,53.4
2018-09-22T20:32:27.332Z,53.4
2018-09-22T20:37:27.878Z,53.6
2018-09-22T20:42:28.385Z,53.5
2018-09-22T20:47:27.291Z,53.4
2018-09-22T20:52:27.143Z,53.5
2018-09-22T20:57:27.776Z,53.6
2018-09-22T21:02:27.791Z,53.6
2018-09-22T21:07:28.257Z,53.6
2018-09-22T21:12:28.037Z,53.6
2018-09-22T21:17:27.429Z,53.6
2018-09-22T21:22:28.034Z,53.7
2018-09-22T21:27:28.034Z,53.8
2018-09-22T21:32:27.055Z,54.1
2018-09-22T21:37:28.173Z,53.9
2018-09-22T21:42:28.134Z,54.1
2018-09-22T21:47:27.703Z,54.0
2018-09-22T21:52:27.789Z,53.9
2018-09-22T21:57:27.908Z,53.8
2018-09-22T22:02:27.597Z,53.9
2018-09-22T22:07:28.120Z,53.8
2018-09-22T22:12:27.652Z,53.6
2018-09-22T22:22:46.723Z,53.7
2018-09-22T22:27:45.417Z,53.7
2018-09-22T22:32:46.899Z,53.7
2018-09-22T22:37:45.895Z,53.8
2018-09-22T22:42:44.987Z,53.7
2018-09-22T22:47:45.611Z,53.9
2018-09-22T22:52:45.865Z,53.9
2018-09-22T22:57:45.240Z,53.8
2018-09-22T23:02:44.862Z,53.8
2018-09-22T23:07:45.704Z,53.8
2018-09-22T23:12:28.406Z,53.7
2018-09-22T23:17:28.134Z,54.0
2018-09-22T23:22:27.764Z,54.1
2018-09-22T23:27:28.124Z,54.1
2018-09-22T23:32:27.986Z,54.2
2018-09-22T23:37:28.053Z,54.1
2018-09-22T23:42:28.058Z,54.2
2018-09-22T23:47:28.177Z,54.5
2018-09-22T23:52:28.184Z,54.4
2018-09-22T23:57:27.809Z,54.4
